createdAt,value
2023-05-09T00:05:19.758Z,73.68
2023-05-09T00:07:48.253Z,74.45
2023-05-09T00:10:17.145Z,78.60
2023-05-09T00:12:45.770Z,72.78
2023-05-09T00:15:15.337Z,74.22
2023-05-09T00:17:47.461Z,80.78
2023-05-09T00:20:15.629Z,75.32
2023-05-09T00:22:43.765Z,77.28
2023-05-09T00:25:15.505Z,88.43
2023-05-09T00:27:43.240Z,90.00
2023-05-09T00:30:11.518Z,86.90
2023-05-09T00:32:41.531Z,80.65
2023-05-09T00:35:10.283Z,74.85
2023-05-09T00:37:38.002Z,54.83
2023-05-09T00:40:06.883Z,54.78
2023-05-09T00:42:35.580Z,46.42
2023-05-09T00:45:06.858Z,50.80
2023-05-09T00:47:35.836Z,65.05
2023-05-09T00:50:03.818Z,66.53
2023-05-09T00:52:34.103Z,70.50
2023-05-09T00:55:03.127Z,71.30
2023-05-09T00:57:30.983Z,76.32
2023-05-09T00:59:58.578Z,76.78
2023-05-09T01:02:26.497Z,74.78
2023-05-09T01:04:54.464Z,77.68
2023-05-09T01:07:35.725Z,78.65
2023-05-09T01:10:05.812Z,84.65
2023-05-09T01:12:33.491Z,99.38
2023-05-09T01:15:02.319Z,90.65
2023-05-09T01:17:36.990Z,92.95
2023-05-09T01:20:28.879Z,90.93
2023-05-09T01:23:02.182Z,88.70
2023-05-09T01:25:52.060Z,88.30
2023-05-09T01:28:22.514Z,78.47
2023-05-09T01:30:52.635Z,91.30
2023-05-09T01:33:21.648Z,83.07
2023-05-09T01:35:53.055Z,83.65
2023-05-09T01:38:22.836Z,80.72
2023-05-09T01:40:53.032Z,85.97
2023-05-09T01:45:52.235Z,77.78
2023-05-09T01:48:21.788Z,83.65
2023-05-09T01:50:50.040Z,81.83
2023-05-09T01:53:19.302Z,86.18
2023-05-09T01:55:48.488Z,96.20
2023-05-09T01:58:17.163Z,104.05
2023-05-09T02:00:45.507Z,94.60
2023-05-09T02:03:13.092Z,92.43
2023-05-09T02:05:41.284Z,92.43
2023-05-09T02:08:09.656Z,88.13
2023-05-09T02:10:40.186Z,102.93
2023-05-09T02:13:08.163Z,96.20
2023-05-09T02:15:35.821Z,94.05
2023-05-09T02:18:03.658Z,104.78
2023-05-09T02:20:31.440Z,97.90
2023-05-09T02:23:02.041Z,92.72
2023-05-09T02:25:29.749Z,91.38
2023-05-09T02:27:59.683Z,88.90
2023-05-09T02:30:28.127Z,99.93
2023-05-09T02:33:02.048Z,103.45
2023-05-09T02:35:29.929Z,87.72
2023-05-09T02:37:58.700Z,92.65
2023-05-09T02:40:27.352Z,103.65
2023-05-09T02:42:54.982Z,105.43
2023-05-09T02:45:22.766Z,94.28
2023-05-09T02:47:50.863Z,97.28
2023-05-09T02:50:19.863Z,92.90
2023-05-09T02:52:52.251Z,89.10
2023-05-09T02:55:20.074Z,92.72
2023-05-09T02:57:52.018Z,92.50
2023-05-09T03:00:29.653Z,85.88
2023-05-09T03:02:59.013Z,90.28
2023-05-09T03:05:26.769Z,82.82
2023-05-09T03:07:54.466Z,87.63
2023-05-09T03:10:22.915Z,94.22
2023-05-09T03:12:50.806Z,98.88
2023-05-09T03:15:19.726Z,101.53
2023-05-09T03:17:49.148Z,94.57
2023-05-09T03:20:16.983Z,96.63
2023-05-09T03:22:44.598Z,97.03
2023-05-09T03:25:13.283Z,88.35
2023-05-09T03:27:41.326Z,98.00
2023-05-09T03:30:13.738Z,85.35
2023-05-09T03:32:43.339Z,88.88
2023-05-09T03:35:11.319Z,88.47
2023-05-09T03:37:38.883Z,78.25
2023-05-09T03:40:09.133Z,75.45
2023-05-09T03:42:44.689Z,80.43
2023-05-09T03:45:13.277Z,73.40
2023-05-09T03:47:42.291Z,72.87
2023-05-09T03:50:11.023Z,71.18
2023-05-09T03:52:39.004Z,75.78
2023-05-09T03:55:08.725Z,68.72
2023-05-09T03:57:37.719Z,73.97
2023-05-09T04:00:10.600Z,69.72
2023-05-09T04:02:41.628Z,74.40
2023-05-09T04:05:15.028Z,73.97
2023-05-09T04:07:44.438Z,75.55
2023-05-09T04:10:12.531Z,78.47
2023-05-09T04:12:40.697Z,72.05
2023-05-09T04:15:12.337Z,73.78
2023-05-09T04:17:40.851Z,71.53
2023-05-09T04:20:09.613Z,82.55
2023-05-09T04:22:37.424Z,82.93
2023-05-09T04:25:05.842Z,70.80
2023-05-09T04:27:33.431Z,71.03
2023-05-09T04:30:01.024Z,70.60
2023-05-09T04:32:28.859Z,69.60
2023-05-09T04:34:57.330Z,68.55
2023-05-09T04:37:31.772Z,68.15
2023-05-09T04:40:01.754Z,67.85
2023-05-09T04:42:38.806Z,64.60
2023-05-09T04:45:07.638Z,62.03
2023-05-09T04:47:35.607Z,64.88
2023-05-09T04:50:04.662Z,67.75
2023-05-09T04:52:34.965Z,68.97
2023-05-09T04:55:02.575Z,62.17
2023-05-09T04:57:35.391Z,71.43
2023-05-09T05:00:07.988Z,64.70
2023-05-09T05:02:37.056Z,65.72
2023-05-09T05:05:11.648Z,80.32
2023-05-09T05:07:43.148Z,65.07
2023-05-09T05:10:14.067Z,64.10
2023-05-09T05:12:48.967Z,65.30
2023-05-09T05:15:19.509Z,65.43
2023-05-09T05:17:50.028Z,67.97
2023-05-09T05:20:21.869Z,70.40
2023-05-09T05:22:50.916Z,63.13
2023-05-09T05:25:20.216Z,60.95
2023-05-09T05:27:50.534Z,65.38
2023-05-09T05:30:18.609Z,62.95
2023-05-09T05:32:47.650Z,63.03
2023-05-09T05:35:23.525Z,61.88
2023-05-09T05:37:53.793Z,64.72
2023-05-09T05:40:22.732Z,60.00
2023-05-09T05:42:52.138Z,55.10
2023-05-09T05:45:20.252Z,55.53
2023-05-09T05:47:51.673Z,50.25
2023-05-09T05:50:22.581Z,48.47
2023-05-09T05:55:22.905Z,51.25
2023-05-09T05:57:50.577Z,49.10
2023-05-09T06:00:27.186Z,53.05
2023-05-09T06:03:05.813Z,50.08
2023-05-09T06:05:47.896Z,50.80
2023-05-09T06:08:22.974Z,49.83
2023-05-09T06:10:51.574Z,49.22
2023-05-09T06:13:21.070Z,47.10
2023-05-09T06:16:18.595Z,50.22
2023-05-09T06:18:56.345Z,50.65
2023-05-09T06:21:36.034Z,48.65
2023-05-09T06:24:20.163Z,45.22
2023-05-09T06:27:08.837Z,46.90
2023-05-09T06:29:38.540Z,43.72
2023-05-09T06:32:09.693Z,48.33
2023-05-09T06:34:38.194Z,45.72
2023-05-09T06:37:23.396Z,45.30
2023-05-09T06:39:52.346Z,43.13
2023-05-09T06:42:26.591Z,43.47
2023-05-09T06:44:55.697Z,44.97
2023-05-09T06:47:24.756Z,37.35
2023-05-09T06:49:54.284Z,40.58
2023-05-09T06:52:30.316Z,41.97
2023-05-09T06:55:26.241Z,42.60
2023-05-09T07:00:27.240Z,43.90
2023-05-09T07:02:59.071Z,45.03
2023-05-09T07:05:27.487Z,43.00
2023-05-09T07:07:56.536Z,41.72
2023-05-09T07:10:24.500Z,40.38
2023-05-09T07:12:52.349Z,40.10
2023-05-09T07:15:32.416Z,39.67
2023-05-09T07:18:05.239Z,41.38
2023-05-09T07:20:33.112Z,39.53
2023-05-09T07:23:01.020Z,36.95
2023-05-09T07:25:29.335Z,39.33
2023-05-09T07:27:57.140Z,39.33
2023-05-09T07:30:25.450Z,39.88
2023-05-09T07:32:54.427Z,36.35
2023-05-09T07:35:22.494Z,38.67
2023-05-09T07:37:50.660Z,36.83
2023-05-09T07:40:21.959Z,38.58
2023-05-09T07:42:50.485Z,39.80
2023-05-09T07:45:22.010Z,37.67
2023-05-09T07:47:51.815Z,36.80
2023-05-09T07:50:20.030Z,38.15
2023-05-09T07:52:49.334Z,36.70
2023-05-09T07:55:18.968Z,34.47
2023-05-09T07:57:47.748Z,34.45
2023-05-09T08:00:17.708Z,36.15
2023-05-09T08:02:45.442Z,36.08
2023-05-09T08:05:15.020Z,33.63
2023-05-09T08:07:43.152Z,36.80
2023-05-09T08:10:13.802Z,28.55
2023-05-09T08:12:41.563Z,33.78
2023-05-09T08:15:09.877Z,34.05
2023-05-09T08:17:37.652Z,33.60
2023-05-09T08:20:06.120Z,34.50
2023-05-09T08:22:33.698Z,34.03
2023-05-09T08:25:01.670Z,32.58
2023-05-09T08:27:29.447Z,36.78
2023-05-09T08:29:58.216Z,32.85
2023-05-09T08:32:25.739Z,32.40
2023-05-09T08:34:53.372Z,32.67
2023-05-09T08:37:20.835Z,35.72
2023-05-09T08:39:53.134Z,33.47
2023-05-09T08:42:25.614Z,29.80
2023-05-09T08:44:54.090Z,37.80
2023-05-09T08:47:23.103Z,29.40
2023-05-09T08:49:51.809Z,28.80
2023-05-09T08:52:20.857Z,24.90
2023-05-09T08:54:51.678Z,24.83
2023-05-09T08:57:20.054Z,21.70
2023-05-09T08:59:49.591Z,22.25
2023-05-09T09:02:18.546Z,25.00
2023-05-09T09:04:50.077Z,21.45
2023-05-09T09:07:18.809Z,17.27
2023-05-09T09:09:49.525Z,19.20
2023-05-09T09:12:20.963Z,20.23
2023-05-09T09:14:54.332Z,22.70
2023-05-09T09:17:30.009Z,22.45
2023-05-09T09:20:03.145Z,19.73
2023-05-09T09:22:35.433Z,17.27
2023-05-09T09:25:03.540Z,20.02
2023-05-09T09:27:33.323Z,17.85
2023-05-09T09:30:08.081Z,21.27
2023-05-09T09:32:36.694Z,15.52
2023-05-09T09:35:08.595Z,15.60
2023-05-09T09:37:43.634Z,15.75
2023-05-09T09:40:12.640Z,12.90
2023-05-09T09:42:49.639Z,13.77
2023-05-09T09:45:22.604Z,16.35
2023-05-09T09:47:50.813Z,10.57
2023-05-09T09:50:20.583Z,7.95
2023-05-09T09:52:50.976Z,12.10
2023-05-09T09:55:19.796Z,12.68
2023-05-09T09:57:49.256Z,12.95
2023-05-09T10:00:18.943Z,13.03
2023-05-09T10:02:50.870Z,19.08
2023-05-09T10:05:22.251Z,10.75
2023-05-09T10:08:02.982Z,17.30
2023-05-09T10:10:31.998Z,14.35
2023-05-09T10:13:01.112Z,14.50
2023-05-09T10:15:35.659Z,15.23
2023-05-09T10:18:11.576Z,14.00
2023-05-09T10:20:41.298Z,15.88
2023-05-09T10:23:09.178Z,17.83
2023-05-09T10:25:36.823Z,14.63
2023-05-09T10:28:10.644Z,18.67
2023-05-09T10:30:52.052Z,16.15
2023-05-09T10:33:22.203Z,14.73
2023-05-09T10:35:51.254Z,16.83
2023-05-09T10:38:28.055Z,17.58
2023-05-09T10:40:56.696Z,12.13
2023-05-09T10:43:25.451Z,13.50
2023-05-09T10:45:53.853Z,14.43
2023-05-09T10:48:21.733Z,14.13
2023-05-09T10:50:50.404Z,14.13
2023-05-09T10:53:24.927Z,13.68
2023-05-09T10:55:55.834Z,15.30
2023-05-09T10:58:27.243Z,15.40
2023-05-09T11:00:57.247Z,13.18
2023-05-09T11:03:26.617Z,14.20
2023-05-09T11:05:59.179Z,19.13
2023-05-09T11:08:28.327Z,13.45
2023-05-09T11:10:57.134Z,10.57
2023-05-09T11:13:26.231Z,11.80
2023-05-09T11:15:59.666Z,10.07
2023-05-09T11:18:28.643Z,13.65
2023-05-09T11:20:57.023Z,12.85
2023-05-09T11:23:28.753Z,12.52
2023-05-09T11:26:05.181Z,9.85
2023-05-09T11:28:34.654Z,6.78
2023-05-09T11:31:12.565Z,8.02
2023-05-09T11:33:44.763Z,5.63
2023-05-09T11:36:29.442Z,5.97
2023-05-09T11:39:04.989Z,8.52
2023-05-09T11:41:39.753Z,10.50
2023-05-09T11:44:23.239Z,12.05
2023-05-09T11:46:55.423Z,7.05
2023-05-09T11:49:39.154Z,9.35
2023-05-09T11:52:06.799Z,8.18
2023-05-09T11:54:34.409Z,6.03
2023-05-09T11:57:02.029Z,8.63
2023-05-09T11:59:34.446Z,6.15
2023-05-09T12:02:08.262Z,10.18
2023-05-09T12:04:36.824Z,6.30
2023-05-09T12:07:04.739Z,6.43
2023-05-09T12:09:33.357Z,9.57
2023-05-09T12:12:01.597Z,7.53
2023-05-09T12:14:29.182Z,8.82
2023-05-09T12:16:57.201Z,9.15
2023-05-09T12:19:25.981Z,7.95
2023-05-09T12:21:58.617Z,9.38
2023-05-09T12:24:31.541Z,6.63
2023-05-09T12:27:00.260Z,6.95
2023-05-09T12:29:27.980Z,9.73
2023-05-09T12:31:56.156Z,7.65
2023-05-09T12:34:24.968Z,10.57
2023-05-09T12:36:53.663Z,11.25
2023-05-09T12:39:23.344Z,9.80
2023-05-09T12:42:01.064Z,9.60
2023-05-09T12:45:03.902Z,7.03
2023-05-09T12:47:19.914Z,15.10
2023-05-09T12:49:51.370Z,12.52
2023-05-09T12:52:20.610Z,9.93
2023-05-09T12:54:53.282Z,8.82
2023-05-09T12:57:25.790Z,7.75
2023-05-09T12:59:58.981Z,11.52
2023-05-09T13:02:30.515Z,9.63
2023-05-09T13:05:08.583Z,10.68
2023-05-09T13:07:43.416Z,9.65
2023-05-09T13:10:12.920Z,8.38
2023-05-09T13:12:45.135Z,9.25
2023-05-09T13:15:13.383Z,15.80
2023-05-09T13:17:41.502Z,7.93
2023-05-09T13:20:10.945Z,8.00
2023-05-09T13:22:38.936Z,7.47
2023-05-09T13:25:07.239Z,7.15
2023-05-09T13:27:41.205Z,8.68
2023-05-09T13:30:09.076Z,7.72
2023-05-09T13:32:37.010Z,10.27
2023-05-09T13:35:07.800Z,10.82
2023-05-09T13:37:36.047Z,7.93
2023-05-09T13:40:04.587Z,10.27
2023-05-09T13:42:32.667Z,11.35
2023-05-09T13:45:00.203Z,6.78
2023-05-09T13:47:28.238Z,13.15
2023-05-09T13:49:56.214Z,8.52
2023-05-09T13:52:24.522Z,7.78
2023-05-09T13:54:53.359Z,6.70
2023-05-09T13:57:23.925Z,6.63
2023-05-09T13:59:58.878Z,6.97
2023-05-09T14:02:27.186Z,5.53
2023-05-09T14:04:55.735Z,5.45
2023-05-09T14:07:23.424Z,14.63
2023-05-09T14:09:56.145Z,6.35
2023-05-09T14:12:29.646Z,5.00
2023-05-09T14:14:57.238Z,6.95
2023-05-09T14:17:24.931Z,9.75
2023-05-09T14:19:53.509Z,6.47
2023-05-09T14:22:22.239Z,5.78
2023-05-09T14:24:50.580Z,8.50
2023-05-09T14:27:19.551Z,6.90
2023-05-09T14:29:47.883Z,7.25
2023-05-09T14:32:18.108Z,10.10
2023-05-09T14:34:46.051Z,10.32
2023-05-09T14:37:15.239Z,8.73
2023-05-09T14:39:43.470Z,6.53
2023-05-09T14:42:13.034Z,8.95
2023-05-09T14:44:41.702Z,7.75
2023-05-09T14:47:10.258Z,6.38
2023-05-09T14:49:39.951Z,9.63
2023-05-09T14:52:07.746Z,11.23
2023-05-09T14:54:35.711Z,7.20
2023-05-09T14:57:05.170Z,8.80
2023-05-09T14:59:36.108Z,8.68
2023-05-09T15:02:05.588Z,7.75
2023-05-09T15:04:33.835Z,7.28
2023-05-09T15:07:02.392Z,10.90
2023-05-09T15:09:33.268Z,7.78
2023-05-09T15:12:01.071Z,10.07
2023-05-09T15:14:29.693Z,9.82
2023-05-09T15:17:03.422Z,8.63
2023-05-09T15:19:33.016Z,9.23
2023-05-09T15:22:05.652Z,11.17
2023-05-09T15:24:34.621Z,7.15
2023-05-09T15:27:02.732Z,8.15
2023-05-09T15:29:31.224Z,8.48
2023-05-09T15:32:05.926Z,8.50
2023-05-09T15:34:34.118Z,13.65
2023-05-09T15:37:02.715Z,8.10
2023-05-09T15:39:35.734Z,8.73
2023-05-09T15:42:05.648Z,12.75
2023-05-09T15:44:33.916Z,8.07
2023-05-09T15:47:01.720Z,8.00
2023-05-09T15:49:30.418Z,10.60
2023-05-09T15:51:59.428Z,7.53
2023-05-09T15:54:27.504Z,8.75
2023-05-09T15:56:55.095Z,9.50
2023-05-09T15:59:22.752Z,12.05
2023-05-09T16:01:51.129Z,15.73
2023-05-09T16:04:20.154Z,17.08
2023-05-09T16:06:50.059Z,19.60
2023-05-09T16:09:19.563Z,14.80
2023-05-09T16:11:48.864Z,19.87
2023-05-09T16:14:17.698Z,19.38
2023-05-09T16:16:48.738Z,17.58
2023-05-09T16:19:20.662Z,13.25
2023-05-09T16:21:53.828Z,16.27
2023-05-09T16:24:22.282Z,10.93
2023-05-09T16:26:50.172Z,10.93
2023-05-09T16:29:19.605Z,11.85
2023-05-09T16:31:50.570Z,9.02
2023-05-09T16:34:20.390Z,8.43
2023-05-09T16:36:49.873Z,10.77
2023-05-09T16:39:19.400Z,9.40
2023-05-09T16:41:49.749Z,8.88
2023-05-09T16:46:51.361Z,8.70
2023-05-09T16:49:20.186Z,9.48
2023-05-09T16:51:49.014Z,7.88
2023-05-09T16:54:20.105Z,10.93
2023-05-09T16:56:49.524Z,9.88
2023-05-09T16:59:23.565Z,9.35
2023-05-09T17:01:52.420Z,10.73
2023-05-09T17:04:20.723Z,8.02
2023-05-09T17:06:51.786Z,8.00
2023-05-09T17:09:20.597Z,9.25
2023-05-09T17:11:51.455Z,7.63
2023-05-09T17:14:20.635Z,9.73
2023-05-09T17:16:49.875Z,11.77
2023-05-09T17:19:19.069Z,11.95
2023-05-09T17:21:51.882Z,9.88
2023-05-09T17:24:19.989Z,8.75
2023-05-09T17:26:50.225Z,10.13
2023-05-09T17:29:20.756Z,8.30
2023-05-09T17:31:50.845Z,8.05
2023-05-09T17:34:20.434Z,8.40
2023-05-09T17:36:55.380Z,8.82
2023-05-09T17:39:23.170Z,11.73
2023-05-09T17:41:51.506Z,8.40
2023-05-09T17:44:19.518Z,8.30
2023-05-09T17:46:49.651Z,9.00
2023-05-09T17:49:19.119Z,7.25
2023-05-09T17:51:49.261Z,11.00
2023-05-09T17:54:19.057Z,11.20
2023-05-09T17:56:51.119Z,8.48
2023-05-09T17:59:19.737Z,8.68
2023-05-09T18:01:50.222Z,9.15
2023-05-09T18:04:19.292Z,10.00
2023-05-09T18:06:47.529Z,11.65
2023-05-09T18:09:15.340Z,8.55
2023-05-09T18:11:42.965Z,19.95
2023-05-09T18:14:11.331Z,11.10
2023-05-09T18:16:39.275Z,8.77
2023-05-09T18:19:07.309Z,12.45
2023-05-09T18:21:36.092Z,7.50
2023-05-09T18:24:04.229Z,9.98
2023-05-09T18:26:31.977Z,9.32
2023-05-09T18:29:00.149Z,13.65
2023-05-09T18:31:28.087Z,9.70
2023-05-09T18:33:56.505Z,11.52
2023-05-09T18:36:24.216Z,10.15
2023-05-09T18:38:52.965Z,10.18
2023-05-09T18:41:20.838Z,9.73
2023-05-09T18:43:49.836Z,9.25
2023-05-09T18:46:21.332Z,13.80
2023-05-09T18:48:53.848Z,13.75
2023-05-09T18:51:21.678Z,14.68
2023-05-09T18:53:49.934Z,10.63
2023-05-09T18:56:21.240Z,9.52
2023-05-09T18:58:52.945Z,14.25
2023-05-09T19:01:21.452Z,12.85
2023-05-09T19:03:54.254Z,9.30
2023-05-09T19:06:22.402Z,12.02
2023-05-09T19:08:50.072Z,9.60
2023-05-09T19:11:22.146Z,11.77
2023-05-09T19:13:50.403Z,11.23
2023-05-09T19:16:21.658Z,13.30
2023-05-09T19:18:49.789Z,12.43
2023-05-09T19:21:20.264Z,11.55
2023-05-09T19:26:19.479Z,15.73
2023-05-09T19:28:49.663Z,13.35
2023-05-09T19:31:19.142Z,13.93
2023-05-09T19:33:48.764Z,15.15
2023-05-09T19:36:18.331Z,12.75
2023-05-09T19:38:47.189Z,14.57
2023-05-09T19:41:15.208Z,16.75
2023-05-09T19:43:43.024Z,17.58
2023-05-09T19:46:10.680Z,13.20
2023-05-09T19:48:39.117Z,17.45
2023-05-09T19:51:09.027Z,14.60
2023-05-09T19:53:36.986Z,14.38
2023-05-09T19:56:04.477Z,16.33
2023-05-09T19:58:33.756Z,15.73
2023-05-09T20:01:02.610Z,15.55
2023-05-09T20:03:30.845Z,19.35
2023-05-09T20:05:58.648Z,16.42
2023-05-09T20:08:26.262Z,16.55
2023-05-09T20:10:54.610Z,19.50
2023-05-09T20:13:22.429Z,18.92
2023-05-09T20:15:50.605Z,21.55
2023-05-09T20:18:19.355Z,19.13
2023-05-09T20:20:47.525Z,18.15
2023-05-09T20:23:15.135Z,21.40
2023-05-09T20:25:42.967Z,18.38
2023-05-09T20:28:12.439Z,16.83
2023-05-09T20:30:40.612Z,21.23
2023-05-09T20:33:08.477Z,20.77
2023-05-09T20:35:39.595Z,18.63
2023-05-09T20:38:08.492Z,18.88
2023-05-09T20:40:37.098Z,36.28
2023-05-09T20:43:05.099Z,20.08
2023-05-09T20:45:32.808Z,21.00
2023-05-09T20:48:02.385Z,22.02
2023-05-09T20:50:31.050Z,21.30
2023-05-09T20:52:58.881Z,23.73
2023-05-09T20:55:26.669Z,26.25
2023-05-09T20:57:54.322Z,25.60
2023-05-09T21:00:21.909Z,25.08
2023-05-09T21:02:50.029Z,27.23
2023-05-09T21:05:20.627Z,28.63
2023-05-09T21:12:47.682Z,27.55
2023-05-09T21:15:15.763Z,32.67
2023-05-09T21:17:43.559Z,33.83
2023-05-09T21:20:11.455Z,33.85
2023-05-09T21:22:39.789Z,32.58
2023-05-09T21:25:08.201Z,28.33
2023-05-09T21:27:36.152Z,25.67
2023-05-09T21:30:04.518Z,29.23
2023-05-09T21:32:33.223Z,27.73
2023-05-09T21:35:08.875Z,25.85
2023-05-09T21:37:36.710Z,25.00
2023-05-09T21:40:05.848Z,25.45
2023-05-09T21:42:40.517Z,21.77
2023-05-09T21:45:09.990Z,24.95
2023-05-09T21:47:39.923Z,25.23
2023-05-09T21:50:08.589Z,27.33
2023-05-09T21:52:36.128Z,27.05
2023-05-09T21:55:04.069Z,27.15
2023-05-09T21:57:32.238Z,26.90
2023-05-09T22:00:02.386Z,29.38
2023-05-09T22:02:32.215Z,25.38
2023-05-09T22:05:00.392Z,31.38
2023-05-09T22:07:30.078Z,30.65
2023-05-09T22:09:57.920Z,35.22
2023-05-09T22:12:25.662Z,29.73
2023-05-09T22:14:56.771Z,34.28
2023-05-09T22:17:27.655Z,43.13
2023-05-09T22:22:23.159Z,33.60
2023-05-09T22:24:50.952Z,37.78
2023-05-09T22:27:19.370Z,36.97
2023-05-09T22:29:49.552Z,36.35
2023-05-09T22:32:18.563Z,45.90
2023-05-09T22:34:49.158Z,43.38
2023-05-09T22:37:17.719Z,44.30
2023-05-09T22:39:50.230Z,45.35
2023-05-09T22:42:21.456Z,41.35
2023-05-09T22:44:50.830Z,40.28
2023-05-09T22:47:21.423Z,41.53
2023-05-09T22:49:50.898Z,43.30
2023-05-09T22:52:20.233Z,42.05
2023-05-09T22:54:49.254Z,44.45
2023-05-09T22:57:19.864Z,46.28
2023-05-09T22:59:51.234Z,44.92
2023-05-09T23:02:19.645Z,48.17
2023-05-09T23:04:49.049Z,52.90
2023-05-09T23:07:17.588Z,51.78
2023-05-09T23:09:45.398Z,50.63
2023-05-09T23:12:13.369Z,49.47
2023-05-09T23:14:40.950Z,53.70
2023-05-09T23:17:10.064Z,61.00
2023-05-09T23:19:38.249Z,57.58
2023-05-09T23:22:06.185Z,55.03
2023-05-09T23:24:33.783Z,58.63
2023-05-09T23:27:03.093Z,60.63
2023-05-09T23:29:30.932Z,58.88
2023-05-09T23:31:58.832Z,62.90
2023-05-09T23:34:26.475Z,65.22
2023-05-09T23:36:54.236Z,69.60
2023-05-09T23:39:21.835Z,67.90
2023-05-09T23:41:51.041Z,63.45
2023-05-09T23:44:19.890Z,72.65
2023-05-09T23:46:51.376Z,69.75
2023-05-09T23:49:22.696Z,74.63
2023-05-09T23:51:52.803Z,73.13
2023-05-09T23:54:21.857Z,70.60
2023-05-09T23:56:50.236Z,77.72
2023-05-09T23:59:18.979Z,69.75
